Latest Weather Observations for Truscott

IDW60801

Issued at 12:43 pm WST Thursday 13 December 2018 (issued every 10 minutes, with the page automatically refreshed every 10 minutes)

About weather observations | Map of weather stations | Latest weather observations for WA | Other Formats
Station Details ID: 001020 Name: TRUSCOTT Lat: -14.09 Lon: 126.39 Height: 51.0 m
Data from the previous 72 hours. | See also: Recent months at Truscott
Date/Time
WST
Temp
°C
App
Temp
°C
Dew
Point
°C
Rel
Hum
%
Delta-T
°C
Wind Press
QNH
hPa
Press
MSL
hPa
Rain since
9am
mm
Dir  Spd
km/h
Gust
km/h
Spd
kts
Gust
kts
13/12:30pm 31.8 34.8 25.2 68 4.7 NW 19 30 10 16 1006.4 1006.0 0.0
13/12:00pm 31.4 34.1 24.8 68 4.7 NW 19 28 10 15 1007.5 1006.9 0.0
13/11:30am 31.5 34.3 24.9 68 4.7 WNW 19 28 10 15 1008.0 1007.6 0.0
13/11:00am 31.7 35.0 25.1 68 4.7 NW 17 30 9 16 1008.2 1007.8 0.0
13/10:30am 31.2 33.4 24.3 66 4.8 WNW 20 28 11 15 1008.3 1007.9 0.0
13/10:00am 31.0 33.5 24.4 68 4.6 WNW 19 28 10 15 1008.7 1008.3 0.0
13/09:30am 30.3 33.8 24.9 73 3.8 W 15 20 8 11 1009.6 1009.2 0.0
13/09:00am 29.9 33.6 24.5 73 3.8 W 13 20 7 11 1009.7 1009.1 0.0
13/08:30am 29.9 33.1 25.0 75 3.4 W 17 24 9 13 1009.6 1009.2 0.0
13/08:00am 29.7 33.8 25.2 77 3.2 W 13 20 7 11 1009.9 1009.5 0.0
13/07:30am 29.6 33.6 25.6 79 2.8 W 15 20 8 11 1009.5 1009.1 0.0
13/07:00am 29.5 33.1 25.0 77 3.2 W 15 24 8 13 1008.5 1008.1 0.0
13/06:30am 29.5 33.1 25.0 77 3.2 WNW 15 22 8 12 1007.9 1007.5 0.0
13/06:00am 29.1 33.1 25.1 79 2.8 WNW 13 20 7 11 1007.3 1006.7 0.0
13/05:30am 29.3 32.0 24.8 77 3.2 W 19 30 10 16 1006.6 1006.2 0.0
13/05:00am 29.3 32.4 24.8 77 3.2 W 17 28 9 15 1006.4 1006.0 0.0
13/04:30am 29.3 31.8 25.3 79 2.8 W 22 43 12 23 1005.1 1004.7 0.0
13/04:00am 29.3 32.0 25.1 78 3.0 W 20 30 11 16 1005.3 1004.9 0.0
13/03:30am 29.2 30.5 24.7 77 3.1 W 26 43 14 23 1004.5 1004.1 0.0
13/03:00am 29.2 30.3 24.3 75 3.4 W 26 35 14 19 1004.8 1004.2 0.0
13/02:30am 29.1 30.6 24.4 76 3.3 WNW 24 33 13 18 1004.6 1004.2 0.0
13/02:00am 29.2 30.9 24.7 77 3.1 W 24 41 13 22 1004.8 1004.4 0.0
13/01:30am 29.2 30.7 25.0 78 3.0 W 26 37 14 20 1005.1 1004.7 0.0
13/01:00am 29.2 31.2 25.2 79 2.8 W 24 35 13 19 1005.1 1004.7 0.0
13/12:30am 29.1 31.9 25.3 80 2.7 WNW 20 28 11 15 1005.2 1004.8 0.0
13/12:00am 29.1 31.9 25.3 80 2.7 WNW 20 30 11 16 1005.2 1004.6 0.0
 
Date/Time
WST
Temp
°C
App
Temp
°C
Dew
Point
°C
Rel
Hum
%
Delta-T
°C
Wind Press
QNH
hPa
Press
MSL
hPa
Rain since
9am
mm
Dir  Spd
km/h
Gust
km/h
Spd
kts
Gust
kts
12/11:30pm 29.2 31.1 25.0 78 3.0 W 24 35 13 19 1005.3 1004.9 0.0
12/11:00pm 29.2 32.0 25.2 79 2.8 WNW 20 30 11 16 1005.5 1005.1 0.0
12/10:30pm 29.2 31.1 25.0 78 3.0 WNW 24 37 13 20 1005.5 1005.1 0.0
12/10:00pm 29.3 31.8 25.3 79 2.8 W 22 37 12 20 1006.0 1005.6 0.0
12/09:30pm 29.4 31.6 24.9 77 3.2 W 22 35 12 19 1006.3 1005.9 0.0
12/09:00pm 29.4 32.2 25.2 78 3.0 W 20 32 11 17 1006.5 1005.9 0.0
12/08:30pm 29.5 31.8 25.0 77 3.2 W 22 32 12 17 1006.4 1006.0 0.0
12/08:00pm 29.5 30.9 24.8 76 3.3 W 26 43 14 23 1005.5 1005.1 0.0
12/07:38pm 29.5 30.4 24.6 75 3.4 W 28 46 15 25 1005.0 1004.6 0.0
12/07:30pm 29.5 30.5 24.8 76 3.3 W 28 41 15 22 1004.8 1004.4 0.0
12/07:00pm 29.5 30.5 24.8 76 3.3 W 28 41 15 22 1003.9 1003.6 0.0
12/06:30pm 29.6 30.6 24.7 75 3.4 W 28 43 15 23 1004.0 1003.7 0.0
12/06:00pm 29.7 31.2 25.0 76 3.3 W 26 44 14 24 1003.8 1003.3 0.0
12/05:30pm 30.1 30.9 24.5 72 3.9 W 28 41 15 22 1003.8 1003.5 0.0
12/05:00pm 30.7 32.4 24.6 70 4.3 W 24 35 13 19 1003.9 1003.6 0.0
12/04:30pm 31.2 31.6 23.8 64 5.1 W 28 43 15 23 1003.5 1003.1 0.0
12/04:07pm 31.9 32.7 24.5 65 5.2 W 28 46 15 25 1003.4 1003.0 0.0
12/04:00pm 31.7 32.0 24.3 65 5.2 W 30 41 16 22 1003.4 1003.0 0.0
12/03:44pm 32.2 32.9 24.3 63 5.5 W 28 50 15 27 1003.4 1003.0 0.0
12/03:30pm 31.8 31.9 23.9 63 5.5 W 30 44 16 24 1003.4 1003.0 0.0
12/03:00pm 32.4 32.5 23.9 61 5.9 W 30 44 16 24 1003.4 1002.9 0.0
12/02:30pm 33.0 33.7 23.6 57 6.5 W 26 39 14 21 1003.4 1003.0 0.0
12/02:00pm 33.2 34.2 23.5 56 6.7 W 24 39 13 21 1003.5 1003.1 0.0
12/01:30pm 33.2 34.2 24.1 59 6.4 W 26 39 14 21 1003.7 1003.4 0.0
12/01:00pm 32.3 32.7 23.8 61 5.9 W 28 46 15 25 1003.9 1003.6 0.0
12/12:59pm 32.6 33.2 24.1 61 5.9 W 28 46 15 25 1003.9 1003.6 0.0
12/12:30pm 33.1 34.2 24.3 60 6.2 WNW 26 39 14 21 1004.0 1003.7 0.0
12/12:00pm 32.7 33.5 24.5 62 5.8 W 28 39 15 21 1004.2 1003.6 0.0
12/11:52am 32.9 33.7 24.4 61 6.0 W 28 46 15 25 1004.3 1003.9 0.0
12/11:30am 32.3 32.3 23.8 61 5.9 W 30 46 16 25 1004.6 1004.2 0.0
12/11:29am 32.9 33.7 24.4 61 6.0 W 28 46 15 25 1004.6 1004.2 0.0
12/11:00am 31.9 31.9 23.7 62 5.7 W 30 43 16 23 1005.0 1004.6 0.0
12/10:30am 32.0 32.0 23.8 62 5.7 W 30 41 16 22 1005.1 1004.7 0.0
12/10:00am 32.1 32.8 23.6 60 5.9 W 26 37 14 20 1005.9 1005.5 0.0
12/09:30am 31.2 32.5 24.1 66 5.0 W 24 39 13 21 1006.3 1005.9 0.0
12/09:00am 31.2 31.2 23.8 64 5.2 WSW 30 41 16 22 1006.5 1005.9 0.0
12/08:30am 31.3 32.1 24.4 66 4.8 W 28 41 15 22 1006.6 1006.2 0.0
12/08:00am 31.1 32.7 24.5 68 4.6 WSW 24 37 13 20 1006.9 1006.5 0.0
12/07:30am 30.2 32.4 24.8 73 3.8 W 22 32 12 17 1007.0 1006.6 0.0
12/07:00am 29.8 31.9 24.7 74 3.6 W 22 33 12 18 1006.7 1006.3 0.0
12/06:30am 29.5 32.0 24.8 76 3.3 W 20 35 11 19 1006.5 1006.1 0.0
12/06:00am 29.2 32.0 25.2 79 2.8 W 20 32 11 17 1006.5 1005.9 0.0
12/05:30am 29.0 32.2 25.0 79 2.8 W 17 24 9 13 1006.3 1005.9 0.0
12/05:00am 28.9 31.4 24.7 78 2.9 W 20 33 11 18 1006.0 1005.6 0.0
12/04:30am 28.9 32.4 24.9 79 2.8 W 15 24 8 13 1005.5 1005.1 0.0
12/04:00am 28.9 31.2 24.5 77 3.1 W 20 28 11 15 1005.5 1005.1 0.0
12/03:30am 29.0 31.8 25.0 79 2.8 W 19 26 10 14 1005.2 1004.8 0.0
12/03:00am 29.0 32.2 25.0 79 2.8 W 17 28 9 15 1004.7 1004.1 0.0
12/02:30am 29.1 32.6 25.5 81 2.5 W 17 28 9 15 1004.6 1004.2 0.0
12/02:00am 29.1 32.6 25.5 81 2.5 WNW 17 28 9 15 1004.7 1004.3 0.0
12/01:30am 29.1 32.3 25.5 81 2.5 W 19 28 10 15 1004.5 1004.1 0.0
12/01:00am 29.2 31.7 25.4 80 2.7 W 22 33 12 18 1004.9 1004.5 0.0
12/12:30am 29.2 32.0 25.2 79 2.8 W 20 30 11 16 1005.4 1005.0 0.0
12/12:00am 29.2 31.9 25.0 78 3.0 WSW 20 33 11 18 1005.8 1005.2 0.0
 
Date/Time
WST
Temp
°C
App
Temp
°C
Dew
Point
°C
Rel
Hum
%
Delta-T
°C
Wind Press
QNH
hPa
Press
MSL
hPa
Rain since
9am
mm
Dir  Spd
km/h
Gust
km/h
Spd
kts
Gust
kts
11/11:30pm 29.3 31.6 25.1 78 3.0 W 22 32 12 17 1006.5 1006.1 0.0
11/11:00pm 29.3 31.9 25.5 80 2.7 W 22 35 12 19 1006.9 1006.5 0.0
11/10:30pm 29.4 32.2 25.2 78 3.0 W 20 32 11 17 1007.0 1006.6 0.0
11/10:00pm 29.4 31.5 25.4 79 2.8 W 24 33 13 18 1007.1 1006.7 0.0
11/09:30pm 29.4 31.9 25.4 79 2.8 W 22 35 12 19 1007.2 1006.8 0.0
11/09:00pm 29.6 32.4 25.3 77 3.0 W 20 32 11 17 1007.3 1006.7 0.0
11/08:30pm 29.6 32.8 25.8 80 2.7 W 20 32 11 17 1007.0 1006.6 0.0
11/08:00pm 29.6 33.1 25.4 78 3.0 W 17 26 9 14 1006.3 1005.9 0.0
11/07:30pm 29.7 32.7 25.2 77 3.2 W 19 32 10 17 1006.1 1005.7 0.0
11/07:00pm 29.9 32.3 24.3 72 3.9 W 19 30 10 16 1006.4 1006.0 0.0
11/06:30pm 30.2 33.0 25.0 73 3.7 W 19 30 10 16 1005.1 1004.7 0.0
11/06:00pm 30.2 33.2 25.3 75 3.5 W 19 28 10 15 1005.1 1004.5 0.0
11/05:30pm 30.4 32.2 24.8 72 3.9 W 24 35 13 19 1005.6 1005.2 0.0
11/05:00pm 30.5 32.3 24.9 72 3.9 W 24 43 13 23 1005.5 1005.1 0.0
11/04:30pm 31.3 32.4 23.7 64 5.3 W 24 41 13 22 1005.3 1004.9 0.0
11/04:00pm 32.0 32.3 24.3 63 5.4 W 30 43 16 23 1004.0 1003.7 0.0
11/03:30pm 32.3 32.0 23.3 59 6.2 W 30 43 16 23 1003.9 1003.6 0.0
11/03:00pm 32.5 32.7 23.4 58 6.3 W 28 39 15 21 1004.6 1004.0 0.0
11/02:30pm 33.5 33.7 23.5 55 7.0 W 28 41 15 22 1004.7 1004.3 0.0
11/02:00pm 33.9 35.0 23.6 55 7.2 W 24 33 13 18 1004.7 1004.3 0.0
11/01:30pm 33.5 34.7 23.8 57 6.8 WNW 24 35 13 19 1005.2 1004.8 0.0
11/01:00pm 32.7 33.0 23.6 58 6.3 W 28 37 15 20 1005.7 1005.3 0.0
11/12:30pm 33.2 34.7 24.4 60 6.2 W 24 37 13 20 1006.1 1005.7 0.0
11/12:00pm 33.5 35.0 24.4 59 6.4 W 24 33 13 18 1006.3 1005.7 0.0
11/11:30am 32.9 33.3 23.8 58 6.3 W 28 39 15 21 1006.4 1006.0 0.0
11/11:00am 32.8 33.7 23.4 57 6.5 W 24 37 13 20 1006.9 1006.5 0.0
11/10:30am 32.9 34.8 23.8 58 6.3 WSW 20 30 11 16 1007.2 1006.8 0.0
11/10:00am 32.5 33.8 24.0 61 5.9 W 24 35 13 19 1007.6 1007.2 0.0
11/09:30am 32.0 33.7 24.1 63 5.5 W 22 33 12 18 1007.9 1007.5 0.0
11/09:00am 31.3 33.1 24.2 66 5.0 W 22 32 12 17 1008.4 1007.8 0.0
11/08:30am 30.9 33.3 24.3 68 4.6 WNW 19 24 10 13 1008.4 1008.0 0.0
11/08:00am 31.3 33.8 24.7 68 4.6 WNW 20 32 11 17 1008.1 1007.7 0.0
11/07:30am 30.3 32.9 24.9 73 3.8 W 20 28 11 15 1008.1 1007.7 0.0
11/07:00am 30.4 33.8 25.2 74 3.7 WNW 17 26 9 14 1007.8 1007.4 0.0
11/06:30am 29.6 33.8 25.4 78 3.0 WNW 13 20 7 11 1007.7 1007.3 0.0
11/06:00am 29.2 33.4 25.4 80 2.7 WNW 13 19 7 10 1007.5 1006.9 0.0
11/05:30am 29.0 32.9 24.8 78 2.9 W 13 20 7 11 1007.0 1006.6 0.0
11/05:00am 28.8 32.9 25.2 81 2.5 W 13 20 7 11 1006.3 1005.9 0.0
11/04:30am 28.7 31.9 24.9 80 2.7 W 17 28 9 15 1005.6 1005.2 0.0
11/04:00am 28.7 32.4 25.1 81 2.5 W 15 20 8 11 1005.3 1004.9 0.0
11/03:30am 28.7 31.9 24.9 80 2.7 W 17 24 9 13 1005.0 1004.6 0.0
11/03:00am 28.7 32.9 25.3 82 2.4 W 13 19 7 10 1005.0 1004.4 0.0
11/02:30am 28.6 32.3 25.2 82 2.4 W 15 20 8 11 1004.9 1004.5 0.0
11/02:00am 28.7 32.5 25.3 82 2.4 W 15 22 8 12 1005.1 1004.7 0.0
11/01:30am 28.7 32.9 25.3 82 2.4 WNW 13 19 7 10 1005.1 1004.7 0.0
11/01:00am 28.7 32.5 25.3 82 2.4 W 15 22 8 12 1005.2 1004.8 0.0
11/12:30am 28.7 32.7 25.1 81 2.5 W 13 19 7 10 1005.2 1004.8 0.0
11/12:00am 28.9 32.9 25.1 80 2.7 W 13 20 7 11 1005.5 1004.9 0.0
 
Date/Time
WST
Temp
°C
App
Temp
°C
Dew
Point
°C
Rel
Hum
%
Delta-T
°C
Wind Press
QNH
hPa
Press
MSL
hPa
Rain since
9am
mm
Dir  Spd
km/h
Gust
km/h
Spd
kts
Gust
kts
10/11:30pm 28.9 32.7 25.3 81 2.5 W 15 20 8 11 1005.7 1005.3 0.0
10/11:00pm 29.0 32.7 25.2 80 2.7 W 15 24 8 13 1006.0 1005.6 0.0
10/10:30pm 29.2 32.8 25.0 78 3.0 W 15 22 8 12 1006.4 1006.0 0.0
10/10:00pm 29.3 33.2 24.8 77 3.2 W 13 20 7 11 1006.6 1006.2 0.0
10/09:30pm 29.4 33.5 25.2 78 3.0 W 13 19 7 10 1006.7 1006.3 0.0
10/09:00pm 29.4 33.3 24.9 77 3.2 W 13 20 7 11 1006.6 1006.0 0.0
10/08:30pm 29.6 33.1 24.9 76 3.3 W 15 20 8 11 1006.7 1006.3 0.0
10/08:00pm 29.8 34.2 24.4 73 3.8 W 9 13 5 7 1007.2 1006.8 0.0
10/07:30pm 29.8 33.3 24.2 72 3.9 W 13 20 7 11 1006.6 1006.2 0.0
10/07:00pm 29.8 33.2 24.0 71 4.0 W 13 19 7 10 1005.7 1005.3 0.0
10/06:30pm 29.9 32.7 24.3 72 3.9 W 17 24 9 13 1005.2 1004.8 0.0
10/06:00pm 30.1 32.5 24.3 71 4.1 W 19 24 10 13 1005.6 1005.0 0.0
10/05:30pm 30.8 33.4 24.0 67 4.7 W 17 24 9 13 1004.7 1004.3 0.0
10/05:00pm 31.3 33.2 23.4 63 5.5 WNW 19 28 10 15 1004.7 1004.3 0.0
10/04:30pm 31.9 33.8 23.4 60 5.9 W 19 28 10 15 1003.7 1003.4 0.0
10/04:00pm 32.7 34.2 23.1 57 6.6 W 20 28 11 15 1003.9 1003.6 0.0
10/03:30pm 33.4 34.8 22.8 53 7.3 W 20 30 11 16 1003.5 1003.1 0.0
10/03:00pm 33.4 34.5 23.1 54 7.2 W 22 30 12 16 1003.6 1003.1 0.0
10/02:30pm 33.7 35.1 22.8 53 7.5 W 20 30 11 16 1003.7 1003.4 0.0
10/02:00pm 33.7 35.4 23.4 55 7.2 W 20 35 11 19 1004.2 1003.8 0.0
10/01:30pm 33.6 35.2 23.3 55 7.2 WNW 20 28 11 15 1004.6 1004.2 0.0
10/01:00pm 33.4 34.8 22.8 53 7.3 W 20 33 11 18 1005.0 1004.6 0.0

Other Formats:

Comma delimited format used in spreadsheet applications
http://www.bom.gov.au/fwo/IDW60801/IDW60801.95101.axf

JavaScript Object Notation format (JSON) in row-major order
http://www.bom.gov.au/fwo/IDW60801/IDW60801.95101.json